Flight Track Log - Related Links

Times and Time Zones

All times are in EDT time to prevent confusion due to time zone crossing. See the EJA729 flight status page for this flight to view local times or setup timezone preferences in your user account.

Time Position Orientation Groundspeed Altitude Reporting Facility
EDT Latitude Longitude Course Direction KTS MPH feet Rate Location/Type
Thu 03:56:07 PM 41.7178 -87.5994 174° South 287 330 6,000  Level Chicago Center
Thu 03:57:09 PM 41.6422 -87.5886 174° South 274 315 6,900 1,790 Climbing Chicago Center
Thu 03:58:11 PM 41.5622 -87.5825 177° South 287 330 9,700 3,072 Climbing Chicago Center
Thu 03:59:14 PM 41.4750 -87.5756 177° South 309 356 13,300 3,744 Climbing Chicago Center
Thu 04:00:16 PM 41.3561 -87.5611 175° South 353 406 17,500 3,387 Climbing Chicago Center
Thu 04:01:18 PM 41.2514 -87.5422 172° South 375 432 20,300 2,613 Climbing Chicago Center
Thu 04:02:20 PM 41.1414 -87.5175 170° South 397 457 22,900 2,226 Climbing Chicago Center
Thu 04:03:22 PM 41.0247 -87.4861 169° South 424 488 24,900 1,935 Climbing Chicago Center
Thu 04:04:24 PM 40.9014 -87.4525 168° South 444 511 26,900 1,935 Climbing Chicago Center
Thu 04:05:26 PM 40.7753 -87.4206 169° South 460 529 28,900 2,129 Climbing Chicago Center
Thu 04:06:28 PM 40.6244 -87.3806 169° South 463 533 31,300 2,129 Climbing Chicago Center
Thu 04:07:30 PM 40.5000 -87.3483 169° South 460 529 33,300 1,887 Climbing Chicago Center
Thu 04:08:32 PM 40.3844 -87.3181 169° South 455 524 35,200 1,776 Climbing Chicago Center
Thu 04:09:35 PM 40.2633 -87.2861 169° South 447 514 37,000 1,344 Climbing Chicago Center
Thu 04:10:37 PM 40.1333 -87.1939 152° Southeast 456 525 38,000 923 Climbing Chicago Center
Thu 04:11:32 PM 40.0639 -87.0867 130° Southeast 477 549 38,800 513 Climbing Indianapolis Center
Thu 04:12:34 PM 39.9833 -86.9492 127° Southeast 479 551 39,000 96 Climbing Indianapolis Center
Thu 04:13:37 PM 39.8800 -86.7792 128° Southeast 496 571 39,000  Level Indianapolis Center
Thu 04:14:39 PM 39.7947 -86.6392 128° Southeast 498 573 39,000  Level Indianapolis Center
Thu 04:15:41 PM 39.7094 -86.4994 128° Southeast 500 575 39,000  Level Indianapolis Center
Thu 04:16:43 PM 39.6250 -86.3625 129° Southeast 502 578 39,000  Level Indianapolis Center
Thu 04:17:45 PM 39.5233 -86.1953 128° Southeast 503 579 39,000  Level Indianapolis Center
Thu 04:18:47 PM 39.4383 -86.0558 128° Southeast 501 577 39,000  Level Indianapolis Center
Thu 04:19:49 PM 39.3519 -85.9167 129° Southeast 500 575 39,000  Level Indianapolis Center
Thu 04:20:51 PM 39.2656 -85.7767 129° Southeast 499 574 39,000  Level Indianapolis Center
Thu 04:21:53 PM 39.1792 -85.6389 129° Southeast 497 572 39,000  Level Indianapolis Center
Thu 04:22:55 PM 39.0769 -85.4744 129° Southeast 492 566 39,000  Level Indianapolis Center
Thu 04:23:57 PM 38.9903 -85.3375 129° Southeast 495 570 39,000  Level Indianapolis Center
Thu 04:24:59 PM 38.9036 -85.2017 129° Southeast 493 567 39,000  Level Indianapolis Center
Thu 04:26:01 PM 38.8172 -85.0664 129° Southeast 492 566 39,000  Level Indianapolis Center
Thu 04:27:03 PM 38.7311 -84.9314 129° Southeast 491 565 39,000  Level Indianapolis Center
Thu 04:28:05 PM 38.6317 -84.7767 129° Southeast 482 555 39,000  Level Indianapolis Center
Thu 04:29:07 PM 38.5464 -84.6425 129° Southeast 483 556 39,000  Level Indianapolis Center
Thu 04:30:09 PM 38.4606 -84.5100 130° Southeast 482 555 39,000  Level Indianapolis Center
Thu 04:31:11 PM 38.3736 -84.3789 130° Southeast 483 556 39,000 -432 Level Indianapolis Center
Thu 04:32:14 PM 38.2878 -84.2467 130° Southeast 482 555 38,100 -1,440 Descending Indianapolis Center
Thu 04:33:16 PM 38.1881 -84.0956 130° Southeast 476 548 36,000 -2,032 Descending Indianapolis Center
Thu 04:34:18 PM 38.1028 -83.9653 130° Southeast 478 550 33,900 -1,452 Descending Indianapolis Center
Thu 04:35:20 PM 38.0181 -83.8372 130° Southeast 470 541 33,000 -435 Descending Indianapolis Center
Thu 04:36:22 PM 37.9317 -83.7083 130° Southeast 477 549 33,000  Level Indianapolis Center
Thu 04:37:24 PM 37.8464 -83.5753 129° Southeast 483 556 33,000 -194 Level Indianapolis Center
Thu 04:38:26 PM 37.7447 -83.4244 130° Southeast 483 556 32,600 -968 Descending Indianapolis Center
Thu 04:39:28 PM 37.6592 -83.2967 130° Southeast 475 547 31,000 -1,258 Descending Indianapolis Center
Thu 04:40:30 PM 37.5717 -83.1675 130° Southeast 481 554 30,000 -484 Descending Indianapolis Center
Thu 04:41:32 PM 37.4842 -83.0369 130° Southeast 485 558 30,000  Level Indianapolis Center
Thu 04:42:34 PM 37.3953 -82.9064 131° Southeast 487 560 30,000 -387 Level Indianapolis Center
Thu 04:43:36 PM 37.3064 -82.7750 130° Southeast 489 563 29,200 -1,161 Descending Indianapolis Center
Thu 04:44:38 PM 37.2181 -82.6472 131° Southeast 482 555 27,600 -1,065 Descending Indianapolis Center
Thu 04:45:40 PM 37.1186 -82.5031 131° Southeast 466 536 27,000 -290 Descending Indianapolis Center
Thu 04:46:42 PM 37.0325 -82.3783 131° Southeast 466 536 27,000  Level Indianapolis Center
Thu 04:47:44 PM 36.9444 -82.2522 131° Southeast 475 547 27,000 -290 Level Indianapolis Center
Thu 04:48:46 PM 36.8564 -82.1258 131° Southeast 479 551 26,400 -484 Descending Indianapolis Center
Thu 04:49:48 PM 36.7769 -82.0011 128° Southeast 460 529 26,000 -194 Descending Indianapolis Center
Thu 04:50:50 PM 36.6981 -81.8708 127° Southeast 464 534 26,000 -823 Level Indianapolis Center
Thu 04:51:52 PM 36.6039 -81.7175 127° Southeast 472 543 24,300 -1,536 Descending Indianapolis Center
Thu 04:52:55 PM 36.5300 -81.5981 128° Southeast 443 510 22,800 -1,680 Descending Indianapolis Center
Thu 04:53:57 PM 36.4575 -81.4814 128° Southeast 428 493 20,800 -1,790 Descending Indianapolis Center
Thu 04:54:59 PM 36.3947 -81.3633 123° Southeast 414 476 19,100 -1,500 Descending Indianapolis Center
Thu 04:56:01 PM 36.3469 -81.2394 116° Southeast 398 458 17,700 -1,548 Descending Indianapolis Center
Thu 04:57:03 PM 36.2958 -81.1061 115° Southeast 388 447 15,900 -1,654 Descending Indianapolis Center
Thu 04:58:08 PM 36.2453 -80.9753 116° Southeast 380 437 14,200 -1,569 Descending Atlanta Center

Login

Don't have an account? Register now (free) for customized features, flight alerts, and more!